Home PIREPS Pireps

Flight SAB3733

  • Submitted By: Vincent Fourni
  • Departure Airport: Bruxelles National (EBBR)
  • Arrival Airport: Malaga airport (LEMG)
  • Aircraft: B737-500 (OO-SAB)
  • Flight Time: 02.26
  • Date Submitted: 07/03/2017
  • Status: Accepted
Flight Details
Gross Revenue:
(125 load / € 0.00 per unit
€ 0.00
Fuel Cost:
(6345 fuel used @ 5.1 / unit)
€ 32,359.50

Additional Log Information:

View Log

Aircraft Used in flight is Boeing 737-800NGX JetairFly Airlines (TUI) Wingl
09:21 Brakes are On
09:22 Brakes are Released
09:25 Brakes are On
09:26 Brakes are Released
09:31 You Took off @ 178 Knots and Flaps at Position 3
Departure Weather
EBBR 070750Z 28007KT 7000 -RA SCT009 BKN012 06/05 Q1014 NOSIGrn
09:31 Landing Gear Up @ 180 Knots and 430 Feet
09:32 Below FL100 you need to turn on the landing lights
11:35 Below 10000 feet you are not allowed to go over 250 knots
11:39 You exceeded maximum bank angle
11:41 Landing Gear Down @ 173 Knots and 2910 Feet
11:44 You Landed @ 120 Knots and with -200 Vertical Speed
Arrival Weather
LEMG 071030Z 28011KT 250V320 CAVOK 21/11 Q1026 NOSIGrn
11:45 Paused
11:49 Unpaused
11:49 Paused
11:49 Unpaused
11:49 Brakes are On
11:51 Brussels Bel-Track1.0.1.2

Route Map

Corporate About Us Our Team Vacancies Information Fleet Route Network Rules and Regulations Operations Flight Schedules Event Center Tours Partners IVAO Vatsim Acars dev FSCB

fb Users Online Belgium Bennie Peeters, South Africa Marc Toussaint,
2 Pilot(s) and 159 Guest(s) Online
CMS by phpVMS - Design by Crazycreatives.com - Copyright © 2020 - Brussels Airlines Virtual